Time;durP1;ratioP1;P1;durP2;ratioP2;P2;SDS_P1;SDS_P2;PMS_P1;PMS_P2;Temp;Humidity;BMP_temperature;BMP_pressure;BME280_temperature;BME280_humidity;BME280_pressure;Samples;Min_cycle;Max_cycle;Signal;HPM_P1;HPM_P2
2024/01/06 00:02:16;;;;;;;23.80;8.70;;;;;;;-3.12;99.34;99443.28;109028;1260;66552;-61
2024/01/06 00:05:05;;;;;;;22.40;8.60;;;;;;;-3.08;99.34;99445.23;109020;1259;71497;-61
2024/01/06 00:07:53;;;;;;;25.40;9.00;;;;;;;-3.06;99.17;99450.92;108979;1260;58184;-60
2024/01/06 00:10:49;;;;;;;19.10;6.90;;;;;;;-3.06;99.50;99452.63;109015;1260;61084;-61
2024/01/06 00:13:36;;;;;;;24.20;7.10;;;;;;;-3.03;99.70;99455.16;108311;1259;1003020;-61
2024/01/06 00:16:24;;;;;;;21.10;8.10;;;;;;;-3.03;99.54;99454.81;108192;1259;1002918;-61
2024/01/06 00:19:17;;;;;;;21.50;7.20;;;;;;;-3.04;99.86;99458.83;109019;1259;73486;-63
2024/01/06 00:22:05;;;;;;;25.40;8.20;;;;;;;-3.04;99.82;99464.56;108300;1260;1002315;-61
2024/01/06 00:24:53;;;;;;;26.00;8.50;;;;;;;-3.05;100.00;99460.77;108292;1259;1002998;-66
2024/01/06 00:27:40;;;;;;;17.50;5.70;;;;;;;-3.04;100.00;99456.77;108287;1260;1002743;-60
2024/01/06 00:30:29;;;;;;;16.40;5.60;;;;;;;-3.04;99.97;99459.18;109085;1260;69297;-61
2024/01/06 00:33:17;;;;;;;12.50;4.30;;;;;;;-3.04;99.80;99454.67;109010;1259;72492;-60
2024/01/06 00:36:07;;;;;;;15.30;5.10;;;;;;;-3.02;99.24;99451.48;109084;1260;58605;-61
2024/01/06 00:38:54;;;;;;;9.80;3.60;;;;;;;-3.00;98.93;99449.70;109101;1259;58740;-60
2024/01/06 00:41:43;;;;;;;12.40;4.00;;;;;;;-2.97;99.36;99451.34;109077;1260;72359;-61
2024/01/06 00:44:30;;;;;;;12.80;4.10;;;;;;;-2.95;99.49;99454.91;109098;1259;66742;-61
2024/01/06 00:47:18;;;;;;;15.60;3.80;;;;;;;-2.96;99.52;99457.71;109035;1260;72473;-59
2024/01/06 00:50:07;;;;;;;14.50;4.80;;;;;;;-2.96;99.67;99455.98;108148;1260;1002121;-61
2024/01/06 00:52:55;;;;;;;15.90;5.30;;;;;;;-2.97;99.72;99452.71;108247;1259;1002311;-61
2024/01/06 00:55:43;;;;;;;15.10;5.10;;;;;;;-2.97;99.78;99458.10;108937;1259;73608;-60
2024/01/06 00:58:31;;;;;;;17.40;4.90;;;;;;;-2.99;99.75;99460.58;109082;1260;68861;-61
2024/01/06 01:01:19;;;;;;;14.90;5.30;;;;;;;-3.00;99.73;99467.38;109028;1260;71539;-61
2024/01/06 01:04:07;;;;;;;16.60;4.90;;;;;;;-2.99;99.86;99464.41;109024;1260;60310;-61
2024/01/06 01:06:55;;;;;;;15.40;5.10;;;;;;;-2.97;99.91;99472.34;109064;1259;61211;-60
2024/01/06 01:09:45;;;;;;;20.10;5.30;;;;;;;-2.94;99.65;99473.28;108756;1264;73892;-60
2024/01/06 01:12:33;;;;;;;15.70;4.70;;;;;;;-2.91;99.21;99478.05;108773;1264;67873;-60
2024/01/06 01:15:20;;;;;;;15.40;4.90;;;;;;;-2.89;99.21;99479.55;108669;1263;73165;-61
2024/01/06 01:18:09;;;;;;;13.20;4.00;;;;;;;-2.88;99.17;99478.66;108724;1264;58183;-61
2024/01/06 01:20:57;;;;;;;15.30;4.40;;;;;;;-2.89;98.93;99480.95;108785;1264;60108;-61
2024/01/06 01:23:44;;;;;;;16.00;4.30;;;;;;;-2.89;98.85;99477.11;108024;1264;1002410;-60
2024/01/06 01:26:32;;;;;;;13.90;4.40;;;;;;;-2.87;99.09;99480.38;108763;1264;67630;-60
2024/01/06 01:29:20;;;;;;;15.70;4.50;;;;;;;-2.87;98.93;99475.33;108745;1264;71495;-61
2024/01/06 01:32:07;;;;;;;16.00;4.80;;;;;;;-2.88;99.06;99479.02;108748;1263;58159;-60
2024/01/06 01:34:55;;;;;;;20.90;5.80;;;;;;;-2.92;99.14;99475.64;108778;1264;61130;-60
2024/01/06 01:37:43;;;;;;;17.90;5.90;;;;;;;-2.94;99.47;99474.83;108767;1264;72605;-60
2024/01/06 01:40:31;;;;;;;16.10;6.20;;;;;;;-2.93;99.02;99477.23;108861;1260;66953;-60
2024/01/06 01:43:20;;;;;;;16.10;6.10;;;;;;;-2.89;99.16;99482.85;109044;1260;73586;-61
2024/01/06 01:46:07;;;;;;;20.70;7.80;;;;;;;-2.87;98.92;99485.06;109050;1260;58207;-61
2024/01/06 01:48:56;;;;;;;18.80;7.90;;;;;;;-2.83;99.06;99490.98;109003;1260;60068;-62
2024/01/06 01:51:44;;;;;;;20.60;8.30;;;;;;;-2.81;99.02;99495.61;108278;1260;1002079;-60
2024/01/06 01:54:32;;;;;;;18.50;7.80;;;;;;;-2.81;98.71;99491.26;108995;1259;67995;-61
2024/01/06 01:57:23;;;;;;;17.40;5.90;;;;;;;-2.82;98.28;99491.66;108890;1260;72440;-61
2024/01/06 02:00:13;;;;;;;16.40;6.00;;;;;;;-2.87;97.28;99493.71;108272;1260;1002239;-61
2024/01/06 02:03:02;;;;;;;16.60;6.00;;;;;;;-2.92;97.56;99493.70;108983;1260;59955;-61
2024/01/06 02:05:50;;;;;;;17.40;5.70;;;;;;;-2.96;97.98;99496.77;109024;1263;74903;-61
2024/01/06 02:08:38;;;;;;;21.20;6.80;;;;;;;-2.96;98.34;99509.80;108984;1260;68064;-61
2024/01/06 02:11:26;;;;;;;17.70;7.10;;;;;;;-2.96;98.32;99510.67;109007;1259;73786;-61
2024/01/06 02:14:14;;;;;;;15.90;6.20;;;;;;;-2.94;98.68;99510.95;108290;1259;1002230;-61
2024/01/06 02:17:02;;;;;;;18.30;6.40;;;;;;;-2.95;98.54;99510.27;109070;1260;60336;-62
2024/01/06 02:19:50;;;;;;;15.00;5.80;;;;;;;-2.94;98.82;99507.30;109088;1259;72344;-61
2024/01/06 02:22:37;;;;;;;14.70;6.00;;;;;;;-2.94;98.74;99506.77;108976;1260;66431;-59
2024/01/06 02:25:26;;;;;;;15.90;5.30;;;;;;;-2.96;98.83;99507.36;109021;1260;72519;-60
2024/01/06 02:28:13;;;;;;;14.40;6.00;;;;;;;-2.99;98.66;99505.20;109008;1259;58151;-60
2024/01/06 02:31:01;;;;;;;17.70;6.20;;;;;;;-3.03;98.23;99510.00;109106;1260;60301;-61
2024/01/06 02:33:49;;;;;;;20.30;6.30;;;;;;;-3.06;98.69;99512.70;108975;1260;74407;-62
2024/01/06 02:36:37;;;;;;;17.80;7.30;;;;;;;-3.09;99.05;99511.94;108284;1260;1002890;-59
2024/01/06 02:39:24;;;;;;;15.50;6.30;;;;;;;-3.11;98.70;99509.05;109019;1263;70371;-60
2024/01/06 02:42:12;;;;;;;16.20;6.80;;;;;;;-3.14;98.47;99502.02;108990;1260;58126;-61
2024/01/06 02:44:59;;;;;;;16.40;6.40;;;;;;;-3.14;97.82;99501.33;109093;1260;61526;-60
2024/01/06 02:47:47;;;;;;;16.00;5.40;;;;;;;-3.14;97.56;99497.86;109012;1260;73456;-61
2024/01/06 02:50:35;;;;;;;14.70;5.40;;;;;;;-3.15;97.13;99501.70;108963;1260;68038;-60
2024/01/06 02:53:23;;;;;;;13.70;4.50;;;;;;;-3.18;95.70;99504.38;108242;1259;1002245;-61
2024/01/06 02:56:12;;;;;;;11.80;3.50;;;;;;;-3.21;95.37;99505.86;108937;1265;58085;-61
2024/01/06 02:58:59;;;;;;;8.60;3.00;;;;;;;-3.28;93.78;99499.30;108979;1260;61038;-62
2024/01/06 03:01:47;;;;;;;10.80;3.60;;;;;;;-3.30;93.77;99499.89;108931;1259;74826;-61
2024/01/06 03:04:35;;;;;;;13.50;4.80;;;;;;;-3.31;94.24;99503.55;109010;1259;67567;-60
2024/01/06 03:07:23;;;;;;;14.20;5.70;;;;;;;-3.32;94.83;99497.34;109047;1259;71562;-60
2024/01/06 03:10:10;;;;;;;16.70;5.50;;;;;;;-3.26;95.33;99508.61;108993;1260;58103;-60
2024/01/06 03:12:58;;;;;;;16.10;5.10;;;;;;;-3.22;96.23;99508.32;109105;1260;60356;-61
2024/01/06 03:15:45;;;;;;;19.90;6.40;;;;;;;-3.19;96.47;99508.06;108927;1261;73585;-63
2024/01/06 03:18:33;;;;;;;13.50;5.40;;;;;;;-3.22;96.66;99511.62;109033;1260;67751;-60
2024/01/06 03:21:22;;;;;;;17.00;5.70;;;;;;;-3.24;97.48;99510.13;109072;1261;72650;-59
2024/01/06 03:24:10;;;;;;;15.20;5.40;;;;;;;-3.26;97.21;99512.25;109084;1263;58710;-61
2024/01/06 03:26:58;;;;;;;17.50;6.00;;;;;;;-3.27;97.21;99513.33;109072;1260;58830;-60
2024/01/06 03:29:46;;;;;;;13.00;4.60;;;;;;;-3.28;97.14;99513.20;108976;1260;74567;-60
2024/01/06 03:32:33;;;;;;;12.30;5.00;;;;;;;-3.32;97.07;99511.23;109042;1259;67582;-60
2024/01/06 03:35:21;;;;;;;14.00;5.10;;;;;;;-3.35;96.74;99511.13;109041;1260;71245;-60
2024/01/06 03:38:08;;;;;;;14.80;4.50;;;;;;;-3.35;96.55;99514.09;108962;1259;58853;-60
2024/01/06 03:40:56;;;;;;;13.00;4.80;;;;;;;-3.33;96.59;99520.63;108237;1259;1002282;-61
2024/01/06 03:43:44;;;;;;;13.60;5.00;;;;;;;-3.30;96.82;99519.85;109003;1263;72595;-59
2024/01/06 03:46:35;;;;;;;12.50;4.30;;;;;;;-3.30;96.31;99516.70;109048;1260;67585;-60
2024/01/06 03:49:24;;;;;;;11.60;3.00;;;;;;;-3.28;96.20;99518.73;108964;1260;72682;-61
2024/01/06 03:52:12;;;;;;;11.60;3.30;;;;;;;-3.28;95.38;99520.15;108151;1261;1002912;-60
2024/01/06 03:55:00;;;;;;;9.20;2.40;;;;;;;-3.30;95.03;99523.64;109065;1261;61530;-59
2024/01/06 03:57:48;;;;;;;9.30;2.60;;;;;;;-3.30;95.10;99531.65;109013;1260;73555;-60
2024/01/06 04:00:36;;;;;;;8.50;2.50;;;;;;;-3.30;95.53;99538.93;109084;1259;65442;-60
2024/01/06 04:03:23;;;;;;;11.00;2.70;;;;;;;-3.29;95.56;99543.23;108968;1260;71573;-60
2024/01/06 04:06:12;;;;;;;9.20;3.00;;;;;;;-3.26;95.45;99549.05;108975;1260;59763;-60
2024/01/06 04:09:01;;;;;;;9.20;2.50;;;;;;;-3.23;95.24;99554.88;108798;1260;300224;-60
2024/01/06 04:11:49;;;;;;;7.70;2.40;;;;;;;-3.20;94.86;99562.23;109014;1260;73140;-60
2024/01/06 04:14:37;;;;;;;8.80;2.70;;;;;;;-3.18;95.34;99564.78;108387;1259;1002689;-59
2024/01/06 04:17:26;;;;;;;7.20;2.20;;;;;;;-3.16;95.42;99570.77;109068;1260;72670;-60
2024/01/06 04:20:14;;;;;;;9.60;2.70;;;;;;;-3.15;95.14;99570.60;108991;1259;58123;-58
2024/01/06 04:23:02;;;;;;;9.60;2.20;;;;;;;-3.17;95.11;99566.84;109003;1260;58948;-59
2024/01/06 04:25:53;;;;;;;8.60;2.10;;;;;;;-3.23;93.60;99564.94;108988;1260;72284;-59
2024/01/06 04:28:41;;;;;;;6.60;1.90;;;;;;;-3.31;91.66;99565.33;108992;1261;67745;-60
2024/01/06 04:31:28;;;;;;;7.70;1.80;;;;;;;-3.33;91.46;99571.83;109072;1260;72586;-61
2024/01/06 04:34:17;;;;;;;8.90;2.00;;;;;;;-3.33;92.33;99567.48;109078;1259;58082;-59
2024/01/06 04:37:05;;;;;;;5.10;1.20;;;;;;;-3.32;92.25;99565.72;108229;1259;1002383;-59
2024/01/06 04:39:53;;;;;;;7.60;2.00;;;;;;;-3.33;92.55;99563.83;108269;1260;1002113;-61
2024/01/06 04:42:41;;;;;;;7.50;2.00;;;;;;;-3.35;91.81;99569.10;109011;1260;68614;-60
2024/01/06 04:45:29;;;;;;;6.20;1.90;;;;;;;-3.36;92.38;99575.02;109056;1260;72526;-60
2024/01/06 04:48:17;;;;;;;5.70;1.40;;;;;;;-3.37;92.27;99579.04;108970;1260;59751;-60
2024/01/06 04:51:06;;;;;;;5.20;1.30;;;;;;;-3.37;92.27;99576.09;109083;1260;60529;-60
2024/01/06 04:53:53;;;;;;;5.20;1.40;;;;;;;-3.35;92.90;99578.80;108283;1259;1002479;-61
2024/01/06 04:56:41;;;;;;;7.20;1.80;;;;;;;-3.35;92.86;99577.77;108969;1260;67948;-60
2024/01/06 04:59:29;;;;;;;5.60;1.50;;;;;;;-3.35;92.81;99582.12;108898;1263;73350;-60
2024/01/06 05:02:16;;;;;;;8.30;1.50;;;;;;;-3.38;91.74;99581.65;109066;1259;58112;-60
2024/01/06 05:05:04;;;;;;;6.20;1.70;;;;;;;-3.39;91.92;99587.60;108976;1259;59027;-60
2024/01/06 05:07:52;;;;;;;5.80;1.50;;;;;;;-3.43;91.60;99585.95;109005;1259;73685;-59
2024/01/06 05:10:40;;;;;;;5.10;1.50;;;;;;;-3.44;91.86;99596.41;108960;1259;67576;-60
2024/01/06 05:13:28;;;;;;;5.10;1.40;;;;;;;-3.46;92.73;99599.58;108992;1257;71595;-61
2024/01/06 05:16:16;;;;;;;6.40;1.40;;;;;;;-3.48;92.66;99594.59;108896;1257;58163;-62
2024/01/06 05:19:04;;;;;;;5.30;1.50;;;;;;;-3.49;92.66;99593.08;109105;1257;60047;-64
2024/01/06 05:21:52;;;;;;;7.40;2.70;;;;;;;-3.49;92.04;99595.16;109119;1257;73578;-60
2024/01/06 05:24:39;;;;;;;10.20;2.60;;;;;;;-3.48;92.33;99593.02;109073;1257;66572;-62
2024/01/06 05:27:27;;;;;;;9.40;3.10;;;;;;;-3.49;92.28;99591.49;109067;1257;72882;-62
2024/01/06 05:30:15;;;;;;;11.90;3.90;;;;;;;-3.45;92.66;99601.12;108916;1257;58052;-62
2024/01/06 05:33:04;;;;;;;13.70;4.40;;;;;;;-3.47;92.53;99608.78;109136;1257;61168;-62
2024/01/06 05:35:51;;;;;;;13.10;4.40;;;;;;;-3.48;92.52;99606.39;108347;1257;1002533;-61
2024/01/06 05:38:39;;;;;;;10.00;3.20;;;;;;;-3.48;92.96;99609.02;108945;1257;66421;-63
2024/01/06 05:41:27;;;;;;;7.70;2.20;;;;;;;-3.46;93.05;99611.22;109062;1257;72479;-61
2024/01/06 05:44:15;;;;;;;7.40;2.00;;;;;;;-3.45;92.75;99615.51;109031;1257;58229;-60
2024/01/06 05:47:03;;;;;;;6.50;1.90;;;;;;;-3.41;92.88;99620.96;108968;1257;59110;-62
2024/01/06 05:49:51;;;;;;;8.50;2.60;;;;;;;-3.39;92.64;99621.95;109027;1257;72605;-64
2024/01/06 05:52:39;;;;;;;9.10;3.30;;;;;;;-3.38;92.32;99627.98;109102;1257;67592;-64
2024/01/06 05:55:26;;;;;;;10.30;3.70;;;;;;;-3.38;92.66;99631.80;108285;1257;1003035;-63
2024/01/06 05:58:14;;;;;;;7.00;2.90;;;;;;;-3.37;92.90;99634.73;108338;1258;1002903;-63
2024/01/06 06:01:02;;;;;;;8.20;2.30;;;;;;;-3.38;92.74;99635.98;108280;1257;1002440;-62
2024/01/06 06:03:50;;;;;;;6.70;2.30;;;;;;;-3.42;92.49;99640.77;109039;1257;73885;-62
2024/01/06 06:06:39;;;;;;;6.10;2.00;;;;;;;-3.44;92.73;99642.71;108431;1256;1002223;-62
2024/01/06 06:09:28;;;;;;;5.70;1.50;;;;;;;-3.47;92.64;99640.38;109093;1257;72369;-62
2024/01/06 06:12:16;;;;;;;6.70;1.80;;;;;;;-3.51;93.28;99649.48;109055;1257;58545;-61
2024/01/06 06:15:06;;;;;;;6.30;1.70;;;;;;;-3.52;93.52;99653.84;109043;1257;59177;-62
2024/01/06 06:17:54;;;;;;;6.10;1.50;;;;;;;-3.54;93.03;99656.02;109083;1257;74439;-61
2024/01/06 06:20:43;;;;;;;5.30;1.50;;;;;;;-3.59;92.32;99651.45;109118;1257;67225;-64
2024/01/06 06:23:31;;;;;;;5.50;1.30;;;;;;;-3.65;92.20;99646.58;109168;1257;72461;-63
2024/01/06 06:26:19;;;;;;;4.40;1.30;;;;;;;-3.59;92.53;99654.74;109171;1257;58143;-62
2024/01/06 06:29:07;;;;;;;6.60;1.50;;;;;;;-3.58;91.74;99661.83;109105;1257;59084;-63
2024/01/06 06:31:54;;;;;;;6.40;1.60;;;;;;;-3.58;91.99;99665.46;109196;1256;74759;-62
2024/01/06 06:34:43;;;;;;;6.50;1.60;;;;;;;-3.57;92.73;99669.45;109106;1257;69314;-60
2024/01/06 06:37:31;;;;;;;6.50;2.00;;;;;;;-3.56;93.03;99671.31;108201;1257;1014882;-61
2024/01/06 06:40:19;;;;;;;7.10;1.60;;;;;;;-3.54;92.85;99675.95;109044;1257;58071;-61
2024/01/06 06:43:08;;;;;;;8.60;1.90;;;;;;;-3.54;92.65;99683.59;108921;1262;59274;-61
2024/01/06 06:45:55;;;;;;;5.60;1.60;;;;;;;-3.56;91.48;99684.85;109037;1257;73722;-61
2024/01/06 06:48:44;;;;;;;6.70;1.80;;;;;;;-3.56;91.54;99685.20;108266;1257;1002318;-62
2024/01/06 06:51:32;;;;;;;7.10;1.40;;;;;;;-3.55;92.02;99689.65;109119;1257;73689;-63
2024/01/06 06:54:19;;;;;;;6.00;1.40;;;;;;;-3.52;91.49;99686.82;108998;1257;58073;-61
2024/01/06 06:57:07;;;;;;;4.70;1.20;;;;;;;-3.47;91.74;99691.71;109156;1257;60348;-62
2024/01/06 06:59:55;;;;;;;5.40;1.40;;;;;;;-3.43;91.61;99693.52;108991;1257;72294;-61
2024/01/06 07:02:43;;;;;;;6.10;1.70;;;;;;;-3.40;91.38;99699.36;109061;1257;67609;-62
2024/01/06 07:05:31;;;;;;;5.70;1.30;;;;;;;-3.37;91.83;99696.50;109109;1257;72835;-60
2024/01/06 07:08:19;;;;;;;6.20;1.40;;;;;;;-3.37;92.15;99693.89;108966;1257;58188;-62
2024/01/06 07:11:06;;;;;;;5.30;1.60;;;;;;;-3.39;92.61;99690.65;109037;1257;61378;-62
2024/01/06 07:13:54;;;;;;;4.90;1.40;;;;;;;-3.41;92.57;99689.65;109001;1257;75700;-64
2024/01/06 07:16:41;;;;;;;6.00;1.60;;;;;;;-3.46;91.92;99693.75;109101;1257;68773;-63
2024/01/06 07:19:32;;;;;;;5.80;1.50;;;;;;;-3.49;91.71;99697.48;109050;1257;72585;-63
2024/01/06 07:22:20;;;;;;;5.00;1.50;;;;;;;-3.47;92.69;99705.08;108992;1257;58056;-62
2024/01/06 07:25:08;;;;;;;6.70;1.40;;;;;;;-3.47;91.00;99707.33;108938;1257;59251;-63
2024/01/06 07:27:56;;;;;;;5.70;1.70;;;;;;;-3.47;91.08;99703.84;108956;1257;73826;-61
2024/01/06 07:30:44;;;;;;;5.60;1.60;;;;;;;-3.46;90.58;99701.23;109023;1257;65586;-62
2024/01/06 07:33:32;;;;;;;5.00;1.50;;;;;;;-3.48;89.65;99698.33;109012;1257;73502;-62
2024/01/06 07:36:21;;;;;;;4.70;1.30;;;;;;;-3.52;89.43;99702.27;109038;1257;58146;-64
2024/01/06 07:39:09;;;;;;;5.10;1.40;;;;;;;-3.60;88.95;99698.29;108983;1257;60217;-62
2024/01/06 07:41:56;;;;;;;7.00;1.50;;;;;;;-3.54;89.97;99711.68;108269;1257;1002593;-62
2024/01/06 07:44:45;;;;;;;6.20;1.60;;;;;;;-3.48;90.40;99719.14;109117;1257;66970;-63
2024/01/06 07:47:32;;;;;;;5.10;1.30;;;;;;;-3.40;90.60;99722.94;108992;1257;70849;-62
2024/01/06 07:50:21;;;;;;;4.90;1.40;;;;;;;-3.36;90.77;99724.23;109018;1258;58282;-63
2024/01/06 07:53:09;;;;;;;6.50;1.70;;;;;;;-3.31;90.36;99731.73;109061;1257;58803;-65
2024/01/06 07:55:57;;;;;;;5.90;1.60;;;;;;;-3.25;90.25;99731.06;109057;1257;74980;-62
2024/01/06 07:58:44;;;;;;;5.70;1.80;;;;;;;-3.26;88.48;99727.77;109119;1257;68993;-64
2024/01/06 08:01:32;;;;;;;5.70;1.70;;;;;;;-3.25;87.52;99733.83;109046;1257;70673;-63
2024/01/06 08:04:20;;;;;;;4.70;1.20;;;;;;;-3.19;87.29;99742.16;109079;1257;58120;-63
2024/01/06 08:07:08;;;;;;;5.50;1.50;;;;;;;-3.15;87.47;99746.76;108209;1257;1002867;-62
2024/01/06 08:09:56;;;;;;;5.50;1.40;;;;;;;-3.10;88.34;99753.73;109122;1258;71999;-63
2024/01/06 08:12:44;;;;;;;4.80;1.40;;;;;;;-3.04;88.39;99758.98;109147;1257;68694;-62
2024/01/06 08:15:32;;;;;;;4.70;1.20;;;;;;;-3.00;88.13;99762.15;108997;1257;71361;-61
2024/01/06 08:18:21;;;;;;;5.40;1.50;;;;;;;-2.96;88.21;99763.95;108248;1257;1002104;-67
2024/01/06 08:21:09;;;;;;;5.60;1.30;;;;;;;-2.93;87.29;99765.77;108959;1257;61218;-62
2024/01/06 08:23:56;;;;;;;5.70;1.30;;;;;;;-2.90;87.26;99771.95;108324;1257;1002964;-63
2024/01/06 08:26:45;;;;;;;5.70;1.90;;;;;;;-2.91;87.19;99768.69;108991;1257;66600;-62
2024/01/06 08:29:33;;;;;;;4.70;1.40;;;;;;;-2.80;87.03;99776.38;108897;1258;72792;-64
2024/01/06 08:32:21;;;;;;;5.60;1.40;;;;;;;-2.78;86.60;99763.82;108181;1257;1002818;-60
2024/01/06 08:35:09;;;;;;;5.80;1.60;;;;;;;-2.67;86.08;99771.34;109080;1257;59207;-62
2024/01/06 08:37:57;;;;;;;5.70;1.60;;;;;;;-2.56;86.85;99774.67;108983;1257;74007;-64
2024/01/06 08:40:47;;;;;;;6.00;1.30;;;;;;;-2.43;86.38;99783.15;108167;1257;1003094;-63
2024/01/06 08:43:35;;;;;;;7.40;2.20;;;;;;;-2.31;86.36;99784.05;108937;1257;72539;-67
2024/01/06 08:46:23;;;;;;;7.80;2.30;;;;;;;-2.20;86.89;99790.48;108813;1257;58502;-68
2024/01/06 08:49:11;;;;;;;8.30;2.90;;;;;;;-2.12;86.73;99792.33;108244;1260;1003115;-68
2024/01/06 08:51:59;;;;;;;8.20;2.10;;;;;;;-2.05;86.66;99792.30;108964;1259;72259;-65
2024/01/06 08:54:49;;;;;;;7.30;2.40;;;;;;;-2.02;85.66;99793.44;109076;1259;67700;-66
2024/01/06 08:57:37;;;;;;;12.80;5.00;;;;;;;-2.01;85.47;99797.23;108929;1260;71484;-65
2024/01/06 09:00:26;;;;;;;6.30;2.40;;;;;;;-1.95;85.88;99802.80;108958;1260;58108;-69
2024/01/06 09:03:14;;;;;;;8.00;2.70;;;;;;;-1.89;86.11;99808.17;109004;1259;59288;-64
2024/01/06 09:06:02;;;;;;;7.90;2.10;;;;;;;-1.83;86.43;99804.86;108977;1259;73900;-66
2024/01/06 09:08:49;;;;;;;7.60;2.60;;;;;;;-1.79;86.25;99804.75;108968;1259;66443;-65
2024/01/06 09:11:37;;;;;;;8.40;1.70;;;;;;;-1.77;85.55;99809.88;108161;1259;1002327;-65
2024/01/06 09:14:26;;;;;;;7.70;2.00;;;;;;;-1.78;85.23;99818.45;109006;1258;58491;-65
2024/01/06 09:17:13;;;;;;;6.70;1.90;;;;;;;-1.75;85.86;99821.33;108951;1259;59025;-64
2024/01/06 09:20:02;;;;;;;8.40;2.50;;;;;;;-1.70;85.98;99817.84;108941;1262;73933;-65
2024/01/06 09:22:50;;;;;;;8.00;2.20;;;;;;;-1.62;85.11;99814.29;109092;1259;67945;-65
2024/01/06 09:25:39;;;;;;;8.60;2.40;;;;;;;-1.60;83.03;99819.11;107534;1259;1002416;-65
2024/01/06 09:28:27;;;;;;;8.20;2.00;;;;;;;-1.60;83.75;99825.36;108941;1260;58105;-65
2024/01/06 09:31:15;;;;;;;6.70;2.10;;;;;;;-1.63;82.08;99823.89;109003;1260;59052;-66
2024/01/06 09:34:04;;;;;;;8.00;3.10;;;;;;;-1.64;82.50;99826.54;108932;1262;74403;-66
2024/01/06 09:36:53;;;;;;;8.00;2.40;;;;;;;-1.62;83.61;99831.35;108126;1259;1002221;-65
2024/01/06 09:39:42;;;;;;;7.30;2.10;;;;;;;-1.60;84.84;99829.73;108941;1259;72618;-68
2024/01/06 09:42:30;;;;;;;8.20;2.70;;;;;;;-1.55;84.92;99833.74;108943;1259;58167;-64
2024/01/06 09:45:17;;;;;;;7.20;2.00;;;;;;;-1.52;84.07;99832.60;108990;1259;60140;-63
2024/01/06 09:48:13;;;;;;;8.10;2.20;;;;;;;-1.48;84.82;99846.92;109049;1259;74847;-62
2024/01/06 09:51:06;;;;;;;6.50;1.80;;;;;;;-1.40;86.11;99848.23;108974;1258;67972;-64
2024/01/06 09:54:07;;;;;;;7.40;2.00;;;;;;;-1.34;85.87;99851.55;109047;1259;71678;-63
2024/01/06 09:56:56;;;;;;;5.70;1.60;;;;;;;-1.30;85.27;99847.58;108897;1257;58250;-62
2024/01/06 09:59:44;;;;;;;6.00;1.40;;;;;;;-1.31;85.05;99849.52;109008;1257;58505;-63
2024/01/06 10:02:32;;;;;;;6.90;2.00;;;;;;;-1.31;85.51;99856.30;108292;1258;1002953;-61
2024/01/06 10:05:20;;;;;;;7.40;2.40;;;;;;;-1.28;85.78;99861.27;109065;1257;67785;-62
2024/01/06 10:08:08;;;;;;;8.50;2.60;;;;;;;-1.26;85.94;99863.44;109065;1259;71526;-62
2024/01/06 10:10:56;;;;;;;7.40;2.10;;;;;;;-1.23;85.58;99863.02;108983;1257;58128;-62
2024/01/06 10:13:44;;;;;;;6.30;1.70;;;;;;;-1.15;86.26;99861.20;109088;1259;61441;-62
2024/01/06 10:16:35;;;;;;;9.30;1.90;;;;;;;-1.10;84.98;99865.38;108977;1258;73804;-64
2024/01/06 10:19:24;;;;;;;6.90;1.90;;;;;;;-1.05;84.11;99868.34;108896;1257;66618;-62
2024/01/06 10:22:12;;;;;;;6.50;1.70;;;;;;;-0.99;84.13;99866.42;108923;1257;72924;-62
2024/01/06 10:24:59;;;;;;;6.20;1.60;;;;;;;-0.97;83.75;99870.71;108953;1260;58781;-65
2024/01/06 10:27:47;;;;;;;5.70;1.60;;;;;;;-0.93;84.19;99874.23;108968;1259;61251;-63
2024/01/06 10:30:37;;;;;;;7.90;1.70;;;;;;;-0.87;84.41;99880.47;108963;1257;74694;-63
2024/01/06 10:33:27;;;;;;;6.50;1.80;;;;;;;-0.80;83.61;99884.23;108981;1259;67652;-64
2024/01/06 10:36:16;;;;;;;6.40;1.60;;;;;;;-0.75;84.04;99877.80;109028;1257;73710;-63
2024/01/06 10:39:07;;;;;;;6.80;1.80;;;;;;;-0.72;83.94;99878.56;108905;1259;58180;-64
2024/01/06 10:41:57;;;;;;;7.70;1.90;;;;;;;-0.71;83.87;99873.30;109024;1257;60617;-63
2024/01/06 10:44:46;;;;;;;6.40;2.00;;;;;;;-0.70;83.65;99868.74;109001;1257;74801;-63
2024/01/06 10:47:36;;;;;;;6.40;1.90;;;;;;;-0.69;82.98;99868.55;108289;1258;1002335;-62
2024/01/06 10:50:27;;;;;;;7.10;2.10;;;;;;;-0.73;82.88;99865.17;109010;1259;73559;-62
2024/01/06 10:53:17;;;;;;;6.50;1.90;;;;;;;-0.75;83.03;99871.36;108942;1257;58632;-63
2024/01/06 10:56:07;;;;;;;5.30;1.50;;;;;;;-0.82;81.07;99871.94;108951;1259;60118;-61
2024/01/06 10:58:57;;;;;;;6.90;1.70;;;;;;;-0.87;81.46;99867.90;109054;1259;73631;-62
2024/01/06 11:01:46;;;;;;;4.70;1.40;;;;;;;-0.85;81.96;99866.63;108184;1259;1003018;-62
2024/01/06 11:04:36;;;;;;;4.80;1.40;;;;;;;-0.79;83.30;99856.17;109056;1259;72375;-66
2024/01/06 11:07:25;;;;;;;9.20;2.30;;;;;;;-0.79;82.47;99848.16;108919;1260;58196;-63
2024/01/06 11:10:18;;;;;;;9.10;2.70;;;;;;;-0.80;82.97;99852.70;108957;1259;59959;-63
2024/01/06 11:13:20;;;;;;;10.60;3.00;;;;;;;-0.82;82.86;99857.65;108970;1259;74854;-63
2024/01/06 11:16:08;;;;;;;9.70;3.20;;;;;;;-0.85;82.94;99855.48;108943;1259;67682;-64
2024/01/06 11:18:55;;;;;;;7.70;2.40;;;;;;;-0.89;83.52;99853.19;108922;1260;73700;-66
2024/01/06 11:21:43;;;;;;;7.60;2.10;;;;;;;-0.92;83.40;99851.71;108943;1259;58117;-63
2024/01/06 11:24:36;;;;;;;6.90;1.60;;;;;;;-0.96;83.67;99855.84;108964;1259;61154;-61
2024/01/06 11:27:30;;;;;;;7.10;1.90;;;;;;;-0.94;84.46;99860.15;109004;1259;72372;-64
2024/01/06 11:30:24;;;;;;;6.50;2.00;;;;;;;-0.92;85.15;99859.90;108891;1259;67665;-63
2024/01/06 11:33:13;;;;;;;10.10;2.60;;;;;;;-0.91;84.86;99859.89;108988;1259;73706;-65
2024/01/06 11:36:07;;;;;;;12.10;3.40;;;;;;;-0.94;84.53;99858.07;108932;1261;60028;-62
2024/01/06 11:38:55;;;;;;;9.90;3.10;;;;;;;-0.89;84.23;99871.46;109065;1259;61141;-62
2024/01/06 11:41:51;;;;;;;10.00;3.10;;;;;;;-0.82;84.63;99873.84;109108;1259;74551;-62
2024/01/06 11:44:43;;;;;;;10.10;3.00;;;;;;;-0.76;85.26;99872.10;108299;1259;1002562;-63
2024/01/06 11:47:33;;;;;;;9.40;2.70;;;;;;;-0.78;83.31;99873.03;108176;1259;1002300;-63
2024/01/06 11:50:21;;;;;;;8.00;2.20;;;;;;;-0.81;83.98;99878.52;108922;1259;58180;-63
2024/01/06 11:53:11;;;;;;;8.30;2.20;;;;;;;-0.81;83.36;99877.48;108950;1259;58964;-64
2024/01/06 11:56:00;;;;;;;8.40;1.80;;;;;;;-0.83;82.88;99873.36;108972;1259;73893;-65
2024/01/06 11:58:48;;;;;;;5.90;1.80;;;;;;;-0.87;82.22;99870.90;108173;1259;1002662;-63
2024/01/06 12:01:40;;;;;;;12.10;2.40;;;;;;;-0.86;81.84;99874.16;108983;1259;73473;-64
2024/01/06 12:04:29;;;;;;;9.20;2.30;;;;;;;-0.88;81.80;99877.20;109080;1259;58173;-63
2024/01/06 12:07:19;;;;;;;11.90;2.40;;;;;;;-0.89;80.83;99884.73;108208;1259;1002963;-62
2024/01/06 12:10:07;;;;;;;6.80;1.60;;;;;;;-0.92;80.58;99890.39;108989;1259;74055;-64
2024/01/06 12:13:05;;;;;;;7.60;1.90;;;;;;;-0.93;80.98;99889.21;109130;1259;67886;-63
2024/01/06 12:15:52;;;;;;;6.10;1.70;;;;;;;-0.92;82.12;99887.79;108901;1259;71090;-64
2024/01/06 12:18:40;;;;;;;6.20;1.50;;;;;;;-0.94;81.76;99883.65;108235;1259;1002342;-62
2024/01/06 12:21:28;;;;;;;7.70;2.00;;;;;;;-0.96;81.82;99883.90;109071;1259;60043;-63
2024/01/06 12:24:20;;;;;;;5.60;1.80;;;;;;;-0.96;82.32;99885.47;108224;1259;1002350;-63
2024/01/06 12:27:12;;;;;;;6.30;1.60;;;;;;;-0.97;82.97;99888.98;108967;1259;68705;-62
2024/01/06 12:30:01;;;;;;;9.00;1.90;;;;;;;-1.05;82.65;99888.89;108194;1259;1002383;-63
2024/01/06 12:32:51;;;;;;;5.90;1.90;;;;;;;-1.15;82.53;99891.31;108915;1259;58392;-64
2024/01/06 12:35:41;;;;;;;8.30;1.80;;;;;;;-1.15;82.43;99905.95;109004;1259;60427;-63
2024/01/06 12:38:30;;;;;;;6.20;1.90;;;;;;;-1.20;82.57;99910.42;109058;1259;73080;-64
2024/01/06 12:41:17;;;;;;;6.30;1.50;;;;;;;-1.24;83.07;99915.29;108943;1259;67688;-63
2024/01/06 12:44:07;;;;;;;6.20;1.90;;;;;;;-1.28;83.02;99918.70;109047;1259;70654;-63
2024/01/06 12:46:55;;;;;;;10.90;2.30;;;;;;;-1.29;83.14;99915.59;108952;1260;58528;-62
2024/01/06 12:49:43;;;;;;;8.10;2.40;;;;;;;-1.32;83.07;99913.95;109033;1260;59334;-64
2024/01/06 12:52:31;;;;;;;9.90;2.70;;;;;;;-1.33;83.54;99904.77;108964;1259;73608;-63
2024/01/06 12:55:19;;;;;;;9.90;2.30;;;;;;;-1.37;82.97;99901.39;108894;1259;66388;-64
2024/01/06 12:58:08;;;;;;;8.90;1.80;;;;;;;-1.44;81.70;99903.87;108981;1259;71197;-63